sensor_id;sensor_type;location;lat;lon;timestamp;P1;durP1;ratioP1;P2;durP2;ratioP2
21513;SDS011;10918;48.102;11.636;2022-09-30T00:00:21;8.02;;;6.68;;
21513;SDS011;10918;48.102;11.636;2022-09-30T00:02:47;7.45;;;6.65;;
21513;SDS011;10918;48.102;11.636;2022-09-30T00:05:13;7.70;;;6.80;;
21513;SDS011;10918;48.102;11.636;2022-09-30T00:07:40;7.70;;;6.97;;
21513;SDS011;10918;48.102;11.636;2022-09-30T00:10:06;7.60;;;6.80;;
21513;SDS011;10918;48.102;11.636;2022-09-30T00:12:32;7.43;;;6.47;;
21513;SDS011;10918;48.102;11.636;2022-09-30T00:14:58;8.35;;;6.43;;
21513;SDS011;10918;48.102;11.636;2022-09-30T00:17:24;8.27;;;6.68;;
21513;SDS011;10918;48.102;11.636;2022-09-30T00:19:50;11.48;;;9.13;;
21513;SDS011;10918;48.102;11.636;2022-09-30T00:22:16;6.72;;;6.10;;
21513;SDS011;10918;48.102;11.636;2022-09-30T00:24:42;7.63;;;6.82;;
21513;SDS011;10918;48.102;11.636;2022-09-30T00:27:08;8.07;;;6.97;;
21513;SDS011;10918;48.102;11.636;2022-09-30T00:29:36;8.30;;;6.97;;
21513;SDS011;10918;48.102;11.636;2022-09-30T00:32:02;8.18;;;7.38;;
21513;SDS011;10918;48.102;11.636;2022-09-30T00:34:28;8.05;;;7.05;;
21513;SDS011;10918;48.102;11.636;2022-09-30T00:36:54;8.63;;;7.55;;
21513;SDS011;10918;48.102;11.636;2022-09-30T00:39:29;8.80;;;7.40;;
21513;SDS011;10918;48.102;11.636;2022-09-30T00:41:59;8.38;;;7.57;;
21513;SDS011;10918;48.102;11.636;2022-09-30T00:44:45;7.78;;;7.03;;
21513;SDS011;10918;48.102;11.636;2022-09-30T00:49:59;7.88;;;7.07;;
21513;SDS011;10918;48.102;11.636;2022-09-30T00:52:26;8.38;;;7.47;;
21513;SDS011;10918;48.102;11.636;2022-09-30T00:54:54;8.15;;;6.55;;
21513;SDS011;10918;48.102;11.636;2022-09-30T00:57:22;8.10;;;7.18;;
21513;SDS011;10918;48.102;11.636;2022-09-30T00:59:48;7.82;;;6.85;;
21513;SDS011;10918;48.102;11.636;2022-09-30T01:02:15;8.52;;;6.70;;
21513;SDS011;10918;48.102;11.636;2022-09-30T01:04:42;7.57;;;6.88;;
21513;SDS011;10918;48.102;11.636;2022-09-30T01:07:10;7.57;;;6.70;;
21513;SDS011;10918;48.102;11.636;2022-09-30T01:09:38;7.68;;;6.88;;
21513;SDS011;10918;48.102;11.636;2022-09-30T01:12:06;7.43;;;6.72;;
21513;SDS011;10918;48.102;11.636;2022-09-30T01:14:33;7.22;;;6.50;;
21513;SDS011;10918;48.102;11.636;2022-09-30T01:28:11;6.85;;;5.95;;
21513;SDS011;10918;48.102;11.636;2022-09-30T01:38:27;6.80;;;5.50;;
21513;SDS011;10918;48.102;11.636;2022-09-30T01:46:29;7.47;;;6.75;;
21513;SDS011;10918;48.102;11.636;2022-09-30T01:48:56;6.82;;;6.15;;
21513;SDS011;10918;48.102;11.636;2022-09-30T01:51:34;6.10;;;5.50;;
21513;SDS011;10918;48.102;11.636;2022-09-30T01:54:04;5.55;;;5.05;;
21513;SDS011;10918;48.102;11.636;2022-09-30T01:56:37;5.90;;;5.38;;
21513;SDS011;10918;48.102;11.636;2022-09-30T01:59:14;5.40;;;4.90;;
21513;SDS011;10918;48.102;11.636;2022-09-30T02:04:23;6.90;;;6.20;;
21513;SDS011;10918;48.102;11.636;2022-09-30T02:06:51;6.10;;;5.22;;
21513;SDS011;10918;48.102;11.636;2022-09-30T02:09:20;7.13;;;5.82;;
21513;SDS011;10918;48.102;11.636;2022-09-30T02:11:49;6.40;;;5.80;;
21513;SDS011;10918;48.102;11.636;2022-09-30T02:16:56;7.75;;;5.93;;
21513;SDS011;10918;48.102;11.636;2022-09-30T02:19:34;7.60;;;5.78;;
21513;SDS011;10918;48.102;11.636;2022-09-30T02:22:24;6.50;;;5.72;;
21513;SDS011;10918;48.102;11.636;2022-09-30T02:24:49;11.57;;;5.35;;
21513;SDS011;10918;48.102;11.636;2022-09-30T02:27:18;6.78;;;6.13;;
21513;SDS011;10918;48.102;11.636;2022-09-30T02:29:51;6.75;;;6.07;;
21513;SDS011;10918;48.102;11.636;2022-09-30T02:32:25;6.10;;;5.50;;
21513;SDS011;10918;48.102;11.636;2022-09-30T02:34:53;6.95;;;6.07;;
21513;SDS011;10918;48.102;11.636;2022-09-30T02:37:30;6.90;;;5.97;;
21513;SDS011;10918;48.102;11.636;2022-09-30T02:42:26;5.72;;;5.22;;
21513;SDS011;10918;48.102;11.636;2022-09-30T02:44:58;5.95;;;4.72;;
21513;SDS011;10918;48.102;11.636;2022-09-30T02:47:27;5.53;;;4.90;;
21513;SDS011;10918;48.102;11.636;2022-09-30T02:52:26;6.65;;;5.00;;
21513;SDS011;10918;48.102;11.636;2022-09-30T02:55:08;5.25;;;4.80;;
21513;SDS011;10918;48.102;11.636;2022-09-30T03:00:04;5.90;;;5.30;;
21513;SDS011;10918;48.102;11.636;2022-09-30T03:02:31;6.05;;;5.45;;
21513;SDS011;10918;48.102;11.636;2022-09-30T03:04:57;6.10;;;5.50;;
21513;SDS011;10918;48.102;11.636;2022-09-30T03:07:23;5.95;;;5.20;;
21513;SDS011;10918;48.102;11.636;2022-09-30T03:09:49;7.88;;;5.75;;
21513;SDS011;10918;48.102;11.636;2022-09-30T03:20:23;6.68;;;5.95;;
21513;SDS011;10918;48.102;11.636;2022-09-30T03:22:59;6.55;;;5.93;;
21513;SDS011;10918;48.102;11.636;2022-09-30T03:30:21;6.43;;;5.82;;
21513;SDS011;10918;48.102;11.636;2022-09-30T03:33:03;7.95;;;6.57;;
21513;SDS011;10918;48.102;11.636;2022-09-30T03:43:33;6.20;;;5.60;;
21513;SDS011;10918;48.102;11.636;2022-09-30T03:46:02;7.22;;;6.00;;
21513;SDS011;10918;48.102;11.636;2022-09-30T03:48:31;6.95;;;6.22;;
21513;SDS011;10918;48.102;11.636;2022-09-30T03:50:58;8.23;;;6.43;;
21513;SDS011;10918;48.102;11.636;2022-09-30T03:53:25;7.15;;;6.45;;
21513;SDS011;10918;48.102;11.636;2022-09-30T03:55:52;9.73;;;6.75;;
21513;SDS011;10918;48.102;11.636;2022-09-30T03:58:19;7.90;;;6.32;;
21513;SDS011;10918;48.102;11.636;2022-09-30T04:00:50;8.02;;;6.90;;
21513;SDS011;10918;48.102;11.636;2022-09-30T04:03:17;7.38;;;6.35;;
21513;SDS011;10918;48.102;11.636;2022-09-30T04:05:43;8.25;;;7.40;;
21513;SDS011;10918;48.102;11.636;2022-09-30T04:08:10;7.68;;;6.78;;
21513;SDS011;10918;48.102;11.636;2022-09-30T04:10:38;8.02;;;6.80;;
21513;SDS011;10918;48.102;11.636;2022-09-30T04:13:05;8.48;;;7.35;;
21513;SDS011;10918;48.102;11.636;2022-09-30T04:15:31;7.80;;;7.00;;
21513;SDS011;10918;48.102;11.636;2022-09-30T04:17:57;9.63;;;7.45;;
21513;SDS011;10918;48.102;11.636;2022-09-30T04:20:23;8.70;;;7.43;;
21513;SDS011;10918;48.102;11.636;2022-09-30T04:22:49;8.65;;;7.53;;
21513;SDS011;10918;48.102;11.636;2022-09-30T04:25:18;8.82;;;7.72;;
21513;SDS011;10918;48.102;11.636;2022-09-30T04:27:44;10.85;;;8.20;;
21513;SDS011;10918;48.102;11.636;2022-09-30T04:30:10;8.45;;;7.57;;
21513;SDS011;10918;48.102;11.636;2022-09-30T04:32:36;8.48;;;7.30;;
21513;SDS011;10918;48.102;11.636;2022-09-30T04:35:03;11.75;;;8.85;;
21513;SDS011;10918;48.102;11.636;2022-09-30T04:37:29;8.43;;;7.32;;
21513;SDS011;10918;48.102;11.636;2022-09-30T04:39:55;9.25;;;7.97;;
21513;SDS011;10918;48.102;11.636;2022-09-30T04:42:21;10.23;;;8.10;;
21513;SDS011;10918;48.102;11.636;2022-09-30T04:44:47;10.77;;;7.97;;
21513;SDS011;10918;48.102;11.636;2022-09-30T04:47:13;10.00;;;8.32;;
21513;SDS011;10918;48.102;11.636;2022-09-30T04:49:40;10.27;;;8.60;;
21513;SDS011;10918;48.102;11.636;2022-09-30T04:52:06;10.93;;;9.18;;
21513;SDS011;10918;48.102;11.636;2022-09-30T04:54:32;9.68;;;8.65;;
21513;SDS011;10918;48.102;11.636;2022-09-30T04:56:58;11.40;;;10.20;;
21513;SDS011;10918;48.102;11.636;2022-09-30T04:59:24;11.20;;;9.50;;
21513;SDS011;10918;48.102;11.636;2022-09-30T05:01:50;11.60;;;10.00;;
21513;SDS011;10918;48.102;11.636;2022-09-30T05:04:16;11.13;;;9.57;;
21513;SDS011;10918;48.102;11.636;2022-09-30T05:06:42;11.63;;;9.57;;
21513;SDS011;10918;48.102;11.636;2022-09-30T05:09:08;12.07;;;10.57;;
21513;SDS011;10918;48.102;11.636;2022-09-30T05:11:34;11.82;;;9.85;;
21513;SDS011;10918;48.102;11.636;2022-09-30T05:21:49;12.98;;;10.48;;
21513;SDS011;10918;48.102;11.636;2022-09-30T05:27:07;13.38;;;10.18;;
21513;SDS011;10918;48.102;11.636;2022-09-30T05:29:33;12.82;;;11.05;;
21513;SDS011;10918;48.102;11.636;2022-09-30T05:32:00;15.68;;;11.65;;
21513;SDS011;10918;48.102;11.636;2022-09-30T05:34:26;14.15;;;11.27;;
21513;SDS011;10918;48.102;11.636;2022-09-30T05:57:59;14.43;;;11.13;;
21513;SDS011;10918;48.102;11.636;2022-09-30T06:00:25;14.45;;;11.35;;
21513;SDS011;10918;48.102;11.636;2022-09-30T06:02:51;12.65;;;10.70;;
21513;SDS011;10918;48.102;11.636;2022-09-30T06:05:17;13.77;;;11.07;;
21513;SDS011;10918;48.102;11.636;2022-09-30T06:07:44;15.98;;;12.60;;
21513;SDS011;10918;48.102;11.636;2022-09-30T06:10:10;18.17;;;14.05;;
21513;SDS011;10918;48.102;11.636;2022-09-30T06:12:36;17.13;;;12.95;;
21513;SDS011;10918;48.102;11.636;2022-09-30T06:15:05;16.80;;;12.38;;
21513;SDS011;10918;48.102;11.636;2022-09-30T06:17:32;15.82;;;12.88;;
21513;SDS011;10918;48.102;11.636;2022-09-30T06:20:02;15.88;;;12.80;;
21513;SDS011;10918;48.102;11.636;2022-09-30T06:22:31;16.17;;;12.63;;
21513;SDS011;10918;48.102;11.636;2022-09-30T06:24:59;15.30;;;12.00;;
21513;SDS011;10918;48.102;11.636;2022-09-30T06:27:25;15.05;;;11.73;;
21513;SDS011;10918;48.102;11.636;2022-09-30T06:29:52;12.68;;;11.15;;
21513;SDS011;10918;48.102;11.636;2022-09-30T06:32:18;13.63;;;11.13;;
21513;SDS011;10918;48.102;11.636;2022-09-30T06:34:44;14.23;;;11.02;;
21513;SDS011;10918;48.102;11.636;2022-09-30T06:37:10;13.75;;;11.50;;
21513;SDS011;10918;48.102;11.636;2022-09-30T06:39:37;14.20;;;11.55;;
21513;SDS011;10918;48.102;11.636;2022-09-30T06:42:05;14.95;;;11.65;;
21513;SDS011;10918;48.102;11.636;2022-09-30T06:44:32;14.50;;;10.98;;
21513;SDS011;10918;48.102;11.636;2022-09-30T07:05:41;12.80;;;10.20;;
21513;SDS011;10918;48.102;11.636;2022-09-30T07:08:08;13.00;;;10.38;;
21513;SDS011;10918;48.102;11.636;2022-09-30T07:10:34;12.13;;;10.25;;
21513;SDS011;10918;48.102;11.636;2022-09-30T07:13:00;11.07;;;9.18;;
21513;SDS011;10918;48.102;11.636;2022-09-30T07:15:29;12.45;;;9.88;;
21513;SDS011;10918;48.102;11.636;2022-09-30T08:30:44;2.28;;;1.88;;
21513;SDS011;10918;48.102;11.636;2022-09-30T08:33:10;2.47;;;2.28;;
21513;SDS011;10918;48.102;11.636;2022-09-30T08:35:36;2.33;;;2.13;;
21513;SDS011;10918;48.102;11.636;2022-09-30T08:38:02;2.08;;;1.60;;
21513;SDS011;10918;48.102;11.636;2022-09-30T08:40:29;1.70;;;1.45;;
21513;SDS011;10918;48.102;11.636;2022-09-30T08:48:19;2.63;;;1.65;;
21513;SDS011;10918;48.102;11.636;2022-09-30T08:53:30;2.35;;;1.77;;
21513;SDS011;10918;48.102;11.636;2022-09-30T08:55:58;2.80;;;1.60;;
21513;SDS011;10918;48.102;11.636;2022-09-30T08:58:27;4.97;;;3.40;;
21513;SDS011;10918;48.102;11.636;2022-09-30T09:00:55;2.25;;;1.00;;
21513;SDS011;10918;48.102;11.636;2022-09-30T09:03:25;0.80;;;0.70;;
21513;SDS011;10918;48.102;11.636;2022-09-30T09:24:03;1.13;;;0.98;;
21513;SDS011;10918;48.102;11.636;2022-09-30T09:26:33;1.33;;;1.20;;
21513;SDS011;10918;48.102;11.636;2022-09-30T09:29:03;1.40;;;1.30;;
21513;SDS011;10918;48.102;11.636;2022-09-30T09:31:31;1.63;;;1.27;;
21513;SDS011;10918;48.102;11.636;2022-09-30T09:33:58;3.97;;;1.30;;
21513;SDS011;10918;48.102;11.636;2022-09-30T11:58:40;2.05;;;1.10;;
21513;SDS011;10918;48.102;11.636;2022-09-30T12:03:39;2.22;;;1.33;;
21513;SDS011;10918;48.102;11.636;2022-09-30T12:06:09;2.03;;;1.25;;
21513;SDS011;10918;48.102;11.636;2022-09-30T12:08:39;0.90;;;0.90;;
21513;SDS011;10918;48.102;11.636;2022-09-30T12:11:19;1.77;;;1.15;;
21513;SDS011;10918;48.102;11.636;2022-09-30T12:13:48;2.95;;;1.10;;
21513;SDS011;10918;48.102;11.636;2022-09-30T12:16:20;1.58;;;1.08;;
21513;SDS011;10918;48.102;11.636;2022-09-30T12:18:55;1.90;;;1.20;;
21513;SDS011;10918;48.102;11.636;2022-09-30T12:21:27;1.08;;;1.00;;
21513;SDS011;10918;48.102;11.636;2022-09-30T12:26:59;0.77;;;0.77;;
21513;SDS011;10918;48.102;11.636;2022-09-30T12:29:28;0.90;;;0.90;;
21513;SDS011;10918;48.102;11.636;2022-09-30T12:35:16;1.05;;;0.70;;
21513;SDS011;10918;48.102;11.636;2022-09-30T12:40:24;1.98;;;1.20;;
21513;SDS011;10918;48.102;11.636;2022-09-30T12:47:57;0.82;;;0.80;;
21513;SDS011;10918;48.102;11.636;2022-09-30T12:50:28;1.00;;;0.90;;
21513;SDS011;10918;48.102;11.636;2022-09-30T12:53:02;0.65;;;0.65;;
21513;SDS011;10918;48.102;11.636;2022-09-30T12:55:38;1.02;;;0.90;;
21513;SDS011;10918;48.102;11.636;2022-09-30T12:58:05;2.08;;;0.98;;
21513;SDS011;10918;48.102;11.636;2022-09-30T13:00:32;0.82;;;0.82;;
21513;SDS011;10918;48.102;11.636;2022-09-30T13:03:07;1.50;;;1.20;;
21513;SDS011;10918;48.102;11.636;2022-09-30T13:08:07;3.08;;;1.90;;
21513;SDS011;10918;48.102;11.636;2022-09-30T13:10:43;3.28;;;0.90;;
21513;SDS011;10918;48.102;11.636;2022-09-30T13:18:48;1.85;;;1.02;;
21513;SDS011;10918;48.102;11.636;2022-09-30T13:20:51;1.52;;;0.90;;
21513;SDS011;10918;48.102;11.636;2022-09-30T13:24:02;0.82;;;0.80;;
21513;SDS011;10918;48.102;11.636;2022-09-30T13:28:51;1.00;;;0.90;;
21513;SDS011;10918;48.102;11.636;2022-09-30T13:31:21;1.05;;;0.90;;
21513;SDS011;10918;48.102;11.636;2022-09-30T13:34:30;0.90;;;0.90;;
21513;SDS011;10918;48.102;11.636;2022-09-30T13:42:00;1.17;;;1.00;;
21513;SDS011;10918;48.102;11.636;2022-09-30T13:44:43;1.95;;;0.50;;
21513;SDS011;10918;48.102;11.636;2022-09-30T13:52:29;0.93;;;0.75;;
21513;SDS011;10918;48.102;11.636;2022-09-30T13:54:57;1.35;;;1.10;;
21513;SDS011;10918;48.102;11.636;2022-09-30T13:57:32;1.45;;;1.08;;
21513;SDS011;10918;48.102;11.636;2022-09-30T14:00:18;2.60;;;1.17;;
21513;SDS011;10918;48.102;11.636;2022-09-30T14:18:35;1.30;;;1.10;;
21513;SDS011;10918;48.102;11.636;2022-09-30T14:23:25;1.73;;;1.25;;
21513;SDS011;10918;48.102;11.636;2022-09-30T14:26:14;4.03;;;1.63;;
21513;SDS011;10918;48.102;11.636;2022-09-30T14:28:42;1.45;;;1.20;;
21513;SDS011;10918;48.102;11.636;2022-09-30T14:31:10;1.20;;;1.10;;
21513;SDS011;10918;48.102;11.636;2022-09-30T14:33:38;1.20;;;1.10;;
21513;SDS011;10918;48.102;11.636;2022-09-30T14:36:06;1.00;;;1.00;;
21513;SDS011;10918;48.102;11.636;2022-09-30T14:38:35;1.17;;;1.08;;
21513;SDS011;10918;48.102;11.636;2022-09-30T14:41:05;1.63;;;0.98;;
21513;SDS011;10918;48.102;11.636;2022-09-30T14:43:34;1.10;;;1.00;;
21513;SDS011;10918;48.102;11.636;2022-09-30T14:46:12;1.35;;;1.25;;
21513;SDS011;10918;48.102;11.636;2022-09-30T14:48:40;1.05;;;0.93;;
21513;SDS011;10918;48.102;11.636;2022-09-30T14:51:09;2.03;;;1.20;;
21513;SDS011;10918;48.102;11.636;2022-09-30T14:53:40;2.15;;;0.95;;
21513;SDS011;10918;48.102;11.636;2022-09-30T14:56:17;2.72;;;1.23;;
21513;SDS011;10918;48.102;11.636;2022-09-30T14:58:46;1.48;;;1.30;;
21513;SDS011;10918;48.102;11.636;2022-09-30T15:01:16;1.30;;;1.20;;
21513;SDS011;10918;48.102;11.636;2022-09-30T15:04:02;1.23;;;1.05;;
21513;SDS011;10918;48.102;11.636;2022-09-30T15:06:32;1.77;;;1.27;;
21513;SDS011;10918;48.102;11.636;2022-09-30T15:09:13;1.48;;;1.15;;
21513;SDS011;10918;48.102;11.636;2022-09-30T15:11:39;1.83;;;1.08;;
21513;SDS011;10918;48.102;11.636;2022-09-30T15:14:08;1.25;;;1.00;;
21513;SDS011;10918;48.102;11.636;2022-09-30T15:16:43;1.65;;;1.20;;
21513;SDS011;10918;48.102;11.636;2022-09-30T15:19:22;1.30;;;1.08;;
21513;SDS011;10918;48.102;11.636;2022-09-30T15:21:50;1.48;;;1.23;;
21513;SDS011;10918;48.102;11.636;2022-09-30T15:24:16;1.50;;;1.30;;
21513;SDS011;10918;48.102;11.636;2022-09-30T15:26:43;1.50;;;1.30;;
21513;SDS011;10918;48.102;11.636;2022-09-30T15:29:14;1.17;;;0.95;;
21513;SDS011;10918;48.102;11.636;2022-09-30T15:31:44;1.85;;;0.90;;
21513;SDS011;10918;48.102;11.636;2022-09-30T15:34:20;0.88;;;0.88;;
21513;SDS011;10918;48.102;11.636;2022-09-30T15:36:47;1.35;;;1.10;;
21513;SDS011;10918;48.102;11.636;2022-09-30T15:39:21;2.75;;;1.10;;
21513;SDS011;10918;48.102;11.636;2022-09-30T15:41:48;1.20;;;1.00;;
21513;SDS011;10918;48.102;11.636;2022-09-30T16:33:36;1.42;;;1.33;;
21513;SDS011;10918;48.102;11.636;2022-09-30T16:36:03;1.92;;;1.70;;
21513;SDS011;10918;48.102;11.636;2022-09-30T16:38:29;1.98;;;1.65;;
21513;SDS011;10918;48.102;11.636;2022-09-30T16:40:55;1.45;;;1.35;;
21513;SDS011;10918;48.102;11.636;2022-09-30T16:43:22;1.55;;;1.45;;
21513;SDS011;10918;48.102;11.636;2022-09-30T16:45:51;1.77;;;1.33;;
21513;SDS011;10918;48.102;11.636;2022-09-30T16:48:17;3.92;;;1.80;;
21513;SDS011;10918;48.102;11.636;2022-09-30T16:50:49;3.95;;;2.20;;
21513;SDS011;10918;48.102;11.636;2022-09-30T16:53:16;2.92;;;1.60;;
21513;SDS011;10918;48.102;11.636;2022-09-30T16:55:43;2.42;;;1.80;;
21513;SDS011;10918;48.102;11.636;2022-09-30T16:58:09;1.60;;;1.38;;
21513;SDS011;10918;48.102;11.636;2022-09-30T17:00:36;2.22;;;1.58;;
21513;SDS011;10918;48.102;11.636;2022-09-30T17:03:05;2.38;;;1.88;;
21513;SDS011;10918;48.102;11.636;2022-09-30T17:05:31;1.90;;;1.70;;
21513;SDS011;10918;48.102;11.636;2022-09-30T17:07:57;2.47;;;2.13;;
21513;SDS011;10918;48.102;11.636;2022-09-30T17:10:28;3.25;;;1.90;;
21513;SDS011;10918;48.102;11.636;2022-09-30T17:12:55;2.28;;;1.92;;
21513;SDS011;10918;48.102;11.636;2022-09-30T17:15:24;1.83;;;1.73;;
21513;SDS011;10918;48.102;11.636;2022-09-30T17:17:50;2.60;;;1.98;;
21513;SDS011;10918;48.102;11.636;2022-09-30T17:20:17;3.33;;;2.13;;
21513;SDS011;10918;48.102;11.636;2022-09-30T17:22:43;2.33;;;2.00;;
21513;SDS011;10918;48.102;11.636;2022-09-30T17:25:10;3.10;;;1.98;;
21513;SDS011;10918;48.102;11.636;2022-09-30T17:27:36;4.22;;;2.22;;
21513;SDS011;10918;48.102;11.636;2022-09-30T17:30:03;5.70;;;2.40;;
21513;SDS011;10918;48.102;11.636;2022-09-30T17:32:29;3.75;;;2.40;;
21513;SDS011;10918;48.102;11.636;2022-09-30T17:34:55;4.53;;;2.13;;
21513;SDS011;10918;48.102;11.636;2022-09-30T17:37:21;2.45;;;2.25;;
21513;SDS011;10918;48.102;11.636;2022-09-30T17:39:47;2.85;;;2.45;;
21513;SDS011;10918;48.102;11.636;2022-09-30T17:42:13;6.03;;;2.72;;
21513;SDS011;10918;48.102;11.636;2022-09-30T17:44:58;3.13;;;2.58;;
21513;SDS011;10918;48.102;11.636;2022-09-30T17:47:25;4.70;;;2.10;;
21513;SDS011;10918;48.102;11.636;2022-09-30T17:49:51;2.20;;;2.00;;
21513;SDS011;10918;48.102;11.636;2022-09-30T17:52:18;3.10;;;2.55;;
21513;SDS011;10918;48.102;11.636;2022-09-30T17:54:44;5.38;;;2.33;;
21513;SDS011;10918;48.102;11.636;2022-09-30T17:57:11;2.65;;;2.40;;
21513;SDS011;10918;48.102;11.636;2022-09-30T17:59:37;2.50;;;2.30;;
21513;SDS011;10918;48.102;11.636;2022-09-30T18:02:04;4.15;;;3.75;;
21513;SDS011;10918;48.102;11.636;2022-09-30T18:04:30;3.75;;;3.10;;
21513;SDS011;10918;48.102;11.636;2022-09-30T18:06:56;2.67;;;2.35;;
21513;SDS011;10918;48.102;11.636;2022-09-30T18:09:22;3.78;;;3.10;;
21513;SDS011;10918;48.102;11.636;2022-09-30T18:11:48;4.10;;;3.20;;
21513;SDS011;10918;48.102;11.636;2022-09-30T18:14:14;2.95;;;2.67;;
21513;SDS011;10918;48.102;11.636;2022-09-30T18:16:40;3.20;;;2.80;;
21513;SDS011;10918;48.102;11.636;2022-09-30T18:19:07;5.70;;;2.58;;
21513;SDS011;10918;48.102;11.636;2022-09-30T18:21:34;2.67;;;2.22;;
21513;SDS011;10918;48.102;11.636;2022-09-30T18:24:00;3.25;;;2.42;;
21513;SDS011;10918;48.102;11.636;2022-09-30T18:26:27;3.33;;;2.92;;
21513;SDS011;10918;48.102;11.636;2022-09-30T18:28:54;3.10;;;2.50;;
21513;SDS011;10918;48.102;11.636;2022-09-30T18:31:22;5.70;;;3.08;;
21513;SDS011;10918;48.102;11.636;2022-09-30T18:34:01;3.40;;;3.10;;
21513;SDS011;10918;48.102;11.636;2022-09-30T18:36:28;4.28;;;3.10;;
21513;SDS011;10918;48.102;11.636;2022-09-30T18:38:56;3.58;;;2.90;;
21513;SDS011;10918;48.102;11.636;2022-09-30T18:41:25;3.85;;;3.30;;
21513;SDS011;10918;48.102;11.636;2022-09-30T18:43:52;3.35;;;2.97;;
21513;SDS011;10918;48.102;11.636;2022-09-30T18:46:26;5.50;;;3.53;;
21513;SDS011;10918;48.102;11.636;2022-09-30T18:48:53;3.50;;;3.20;;
21513;SDS011;10918;48.102;11.636;2022-09-30T18:51:20;4.05;;;3.42;;
21513;SDS011;10918;48.102;11.636;2022-09-30T18:53:50;3.47;;;3.08;;
21513;SDS011;10918;48.102;11.636;2022-09-30T18:56:19;6.47;;;3.20;;
21513;SDS011;10918;48.102;11.636;2022-09-30T18:58:47;5.35;;;3.35;;
21513;SDS011;10918;48.102;11.636;2022-09-30T19:01:13;4.85;;;3.10;;
21513;SDS011;10918;48.102;11.636;2022-09-30T19:03:40;3.58;;;3.05;;
21513;SDS011;10918;48.102;11.636;2022-09-30T19:06:06;5.40;;;3.47;;
21513;SDS011;10918;48.102;11.636;2022-09-30T19:08:33;3.92;;;3.20;;
21513;SDS011;10918;48.102;11.636;2022-09-30T19:11:03;4.22;;;3.40;;
21513;SDS011;10918;48.102;11.636;2022-09-30T19:13:38;6.63;;;4.20;;
21513;SDS011;10918;48.102;11.636;2022-09-30T19:16:04;5.50;;;3.78;;
21513;SDS011;10918;48.102;11.636;2022-09-30T19:18:31;5.05;;;4.55;;
21513;SDS011;10918;48.102;11.636;2022-09-30T19:21:04;5.03;;;4.38;;
21513;SDS011;10918;48.102;11.636;2022-09-30T19:23:31;5.90;;;4.43;;
21513;SDS011;10918;48.102;11.636;2022-09-30T19:25:57;5.00;;;3.88;;
21513;SDS011;10918;48.102;11.636;2022-09-30T19:28:25;4.45;;;3.65;;
21513;SDS011;10918;48.102;11.636;2022-09-30T19:30:51;6.13;;;3.70;;
21513;SDS011;10918;48.102;11.636;2022-09-30T19:33:17;4.50;;;3.75;;
21513;SDS011;10918;48.102;11.636;2022-09-30T19:35:46;3.95;;;3.60;;
21513;SDS011;10918;48.102;11.636;2022-09-30T19:38:12;4.50;;;3.88;;
21513;SDS011;10918;48.102;11.636;2022-09-30T19:40:39;5.10;;;4.63;;
21513;SDS011;10918;48.102;11.636;2022-09-30T19:43:05;5.85;;;4.13;;
21513;SDS011;10918;48.102;11.636;2022-09-30T19:45:32;5.88;;;4.55;;
21513;SDS011;10918;48.102;11.636;2022-09-30T19:47:58;6.15;;;4.45;;
21513;SDS011;10918;48.102;11.636;2022-09-30T19:50:24;5.80;;;4.53;;
21513;SDS011;10918;48.102;11.636;2022-09-30T19:52:51;7.32;;;5.07;;
21513;SDS011;10918;48.102;11.636;2022-09-30T19:55:17;5.63;;;5.10;;
21513;SDS011;10918;48.102;11.636;2022-09-30T19:57:43;6.47;;;5.25;;
21513;SDS011;10918;48.102;11.636;2022-09-30T20:10:32;6.20;;;5.00;;
21513;SDS011;10918;48.102;11.636;2022-09-30T20:12:58;5.85;;;5.07;;
21513;SDS011;10918;48.102;11.636;2022-09-30T20:15:27;5.72;;;4.35;;
21513;SDS011;10918;48.102;11.636;2022-09-30T20:18:11;5.30;;;4.60;;
21513;SDS011;10918;48.102;11.636;2022-09-30T20:20:37;4.82;;;4.28;;
21513;SDS011;10918;48.102;11.636;2022-09-30T20:23:06;5.13;;;4.63;;
21513;SDS011;10918;48.102;11.636;2022-09-30T20:25:33;6.57;;;4.50;;
21513;SDS011;10918;48.102;11.636;2022-09-30T20:27:59;5.38;;;4.80;;
21513;SDS011;10918;48.102;11.636;2022-09-30T20:30:25;5.20;;;4.70;;
21513;SDS011;10918;48.102;11.636;2022-09-30T20:32:53;5.30;;;4.30;;
21513;SDS011;10918;48.102;11.636;2022-09-30T20:35:22;6.20;;;4.72;;
21513;SDS011;10918;48.102;11.636;2022-09-30T20:37:49;5.78;;;4.72;;
21513;SDS011;10918;48.102;11.636;2022-09-30T20:40:16;5.60;;;5.05;;
21513;SDS011;10918;48.102;11.636;2022-09-30T20:42:42;6.15;;;5.22;;
21513;SDS011;10918;48.102;11.636;2022-09-30T20:58:08;10.45;;;6.40;;
21513;SDS011;10918;48.102;11.636;2022-09-30T21:00:36;7.70;;;6.90;;
21513;SDS011;10918;48.102;11.636;2022-09-30T21:03:03;9.02;;;8.07;;
21513;SDS011;10918;48.102;11.636;2022-09-30T21:05:29;7.05;;;6.45;;
21513;SDS011;10918;48.102;11.636;2022-09-30T21:07:59;8.77;;;7.25;;
21513;SDS011;10918;48.102;11.636;2022-09-30T21:10:29;8.40;;;6.45;;
21513;SDS011;10918;48.102;11.636;2022-09-30T21:12:56;8.00;;;6.90;;
21513;SDS011;10918;48.102;11.636;2022-09-30T21:15:23;8.77;;;7.10;;
21513;SDS011;10918;48.102;11.636;2022-09-30T21:17:51;7.20;;;6.25;;
21513;SDS011;10918;48.102;11.636;2022-09-30T21:20:20;7.38;;;6.63;;
21513;SDS011;10918;48.102;11.636;2022-09-30T21:22:46;8.05;;;6.90;;
21513;SDS011;10918;48.102;11.636;2022-09-30T21:25:12;7.90;;;6.68;;
21513;SDS011;10918;48.102;11.636;2022-09-30T21:27:39;7.32;;;6.47;;
21513;SDS011;10918;48.102;11.636;2022-09-30T21:30:05;7.32;;;6.63;;
21513;SDS011;10918;48.102;11.636;2022-09-30T21:32:32;9.02;;;6.78;;
21513;SDS011;10918;48.102;11.636;2022-09-30T21:55:48;6.93;;;6.13;;
21513;SDS011;10918;48.102;11.636;2022-09-30T22:29:56;8.48;;;6.18;;
21513;SDS011;10918;48.102;11.636;2022-09-30T22:32:23;7.47;;;6.35;;
21513;SDS011;10918;48.102;11.636;2022-09-30T22:34:49;6.22;;;5.63;;
21513;SDS011;10918;48.102;11.636;2022-09-30T22:37:34;6.53;;;5.80;;
21513;SDS011;10918;48.102;11.636;2022-09-30T22:40:19;7.75;;;6.10;;
21513;SDS011;10918;48.102;11.636;2022-09-30T22:42:45;5.32;;;4.82;;
21513;SDS011;10918;48.102;11.636;2022-09-30T22:45:12;6.22;;;5.63;;
21513;SDS011;10918;48.102;11.636;2022-09-30T22:47:40;6.28;;;5.68;;
21513;SDS011;10918;48.102;11.636;2022-09-30T22:50:07;8.57;;;6.60;;
21513;SDS011;10918;48.102;11.636;2022-09-30T22:52:33;9.05;;;7.85;;
21513;SDS011;10918;48.102;11.636;2022-09-30T22:54:59;6.22;;;5.63;;
21513;SDS011;10918;48.102;11.636;2022-09-30T22:57:25;8.10;;;5.70;;
21513;SDS011;10918;48.102;11.636;2022-09-30T22:59:54;8.15;;;5.68;;
